Startpagina
METAR-TAF:

METAR-TAF

Vliegvelden :

Liberia, Costa Rica

breedte: 10-37N, lengte: 085-26W, hoogte: 80 m

Actueel weer

Dit bericht is 13 minuten geleden gemaakt, om 19:00 UTC
Wind 20 kt uit het oosten met uitschieters tot 30 kt
Temperatuur 34°C
Vochtigheid 39%
Druk 1010 hPa
Zicht 10 km of meer
geen wolken onder 1500 m en geen cumulonimbus

METAR: MRLB 231900Z 09020G30KT CAVOK 34/18 A2982

Tijdstip: 13:13 (19:13 UTC)

Verwachting

Dit bericht is 2 uur en het 13 minuten geleden gemaakt, om 17:00 UTC
Verwachting geldig van 23 om 18 UTC tot 24 om 18 UTC
Wind 18 kt uit het oosten
Zicht 10 km of meer
geen wolken onder 1500 m en geen cumulonimbus
Tijdelijke
van 23 om 18 UTC tot 23 om 24 UTC
Wind 20 kt uit het oosten met uitschieters tot 30 kt
Tijdelijke
van 24 om 08 UTC tot 24 om 14 UTC
Wind 3 kt uit het oostnoordoosten

TAF: MRLB 231700Z 2318/2418 09018KT CAVOK TX35/2319Z TN23/2412Z TEMPO 2318/2324 08020G30KT TEMPO 2408/2414 07003KT

Waarnemingen en weersverwachtingen van meer dan 4000 vliegvelden (METAR en TAF).

De beschikbare stations zijn de gele en rode punten op de kaart.

Ga met uw muis naar het station om de naam te zien.

Klik dan om waarnemingen en weersverwachtingen te zien.

kaart wijzigen: klik op de groene knoppen met een zwart kruis om in te zoomen, op de groene knop met een streepje om uit te zoomen of op de groene pijlen voor aangrenzende kaarten.


METAR-TAF: